createdAt,value
2023-04-29T00:04:13.020Z,95
2023-04-29T00:33:09.518Z,96
2023-04-29T01:02:15.388Z,94
2023-04-29T01:31:31.384Z,93
2023-04-29T02:00:40.850Z,92
2023-04-29T02:29:49.361Z,91
2023-04-29T02:59:00.825Z,92
2023-04-29T03:28:19.061Z,91
2023-04-29T03:57:27.044Z,89
2023-04-29T04:26:36.943Z,87
2023-04-29T04:55:51.189Z,86
2023-04-29T05:25:05.497Z,86
2023-04-29T05:54:16.004Z,88
2023-04-29T06:23:44.387Z,89
2023-04-29T06:52:33.058Z,87
2023-04-29T07:21:34.889Z,85
2023-04-29T07:50:44.103Z,84
2023-04-29T08:19:59.959Z,80
2023-04-29T08:49:11.394Z,80
2023-04-29T09:18:25.448Z,78
2023-04-29T09:47:45.531Z,76
2023-04-29T10:17:04.313Z,75
2023-04-29T10:46:25.224Z,72
2023-04-29T11:15:42.530Z,71
2023-04-29T11:45:05.378Z,67
2023-04-29T12:14:20.455Z,66
2023-04-29T12:43:29.630Z,66
2023-04-29T13:12:36.792Z,58
2023-04-29T13:41:47.067Z,64
2023-04-29T14:10:35.598Z,63
2023-04-29T14:39:43.891Z,61
2023-04-29T15:08:54.841Z,62
2023-04-29T15:38:14.163Z,63
2023-04-29T16:07:11.512Z,63
2023-04-29T16:36:22.350Z,66
2023-04-29T17:05:33.676Z,63
2023-04-29T17:34:48.255Z,65
2023-04-29T18:04:06.949Z,67
2023-04-29T18:33:17.680Z,67
2023-04-29T19:02:32.319Z,68
2023-04-29T19:31:50.999Z,68
2023-04-29T20:01:00.728Z,69
2023-04-29T20:30:11.117Z,69
2023-04-29T20:59:24.012Z,69
2023-04-29T21:28:36.963Z,69
2023-04-29T21:57:51.466Z,69
2023-04-29T22:27:07.761Z,69
2023-04-29T22:56:24.653Z,70
2023-04-29T23:25:43.477Z,70
2023-04-29T23:54:59.910Z,71
